Time;durP1;ratioP1;P1;durP2;ratioP2;P2;SDS_P1;SDS_P2;PMS_P1;PMS_P2;Temp;Humidity;BMP_temperature;BMP_pressure;BME280_temperature;BME280_humidity;BME280_pressure;Samples;Min_cycle;Max_cycle;Signal;HPM_P1;HPM_P2
2024/01/11 00:54:49;;;;;;;18.10;7.47;;;;;;;;;;4975800;28;20628;-62
2024/01/11 00:57:16;;;;;;;20.33;7.37;;;;;;;;;;4979039;28;20074;-62
2024/01/11 00:59:51;;;;;;;19.23;8.20;;;;;;;;;;4982724;28;20070;-62
2024/01/11 01:02:18;;;;;;;;;;;;;;;;;;4985213;28;20046;-62
2024/01/11 01:04:45;;;;;;;22.87;8.43;;;;;;;;;;4983676;28;19926;-62
2024/01/11 01:07:19;;;;;;;19.90;8.33;;;;;;;;;;4983316;28;20062;-62
2024/01/11 01:09:47;;;;;;;21.47;8.47;;;;;;;;;;4983144;28;20058;-62
2024/01/11 01:12:20;;;;;;;20.63;8.30;;;;;;;;;;4982493;28;20050;-60
2024/01/11 01:14:47;;;;;;;;;;;;;;;;;;4983766;28;20549;-61
2024/01/11 01:17:14;;;;;;;18.10;7.03;;;;;;;;;;4982181;28;19926;-60
2024/01/11 01:19:48;;;;;;;18.67;7.70;;;;;;;;;;4982033;28;20510;-62
2024/01/11 01:22:16;;;;;;;16.50;7.23;;;;;;;;;;4981478;28;20058;-62
2024/01/11 01:24:50;;;;;;;18.13;8.30;;;;;;;;;;4982217;28;20470;-62
2024/01/11 01:27:17;;;;;;;;;;;;;;;;;;4983313;28;20707;-61
2024/01/11 01:29:44;;;;;;;17.47;8.03;;;;;;;;;;4982162;28;19928;-62
2024/01/11 01:32:18;;;;;;;19.37;7.90;;;;;;;;;;4970896;28;20069;-61
2024/01/11 01:34:46;;;;;;;15.90;7.07;;;;;;;;;;4977474;28;20054;-63
2024/01/11 01:37:20;;;;;;;15.70;7.17;;;;;;;;;;4978221;28;20060;-63
2024/01/11 01:39:48;;;;;;;19.40;7.97;;;;;;;;;;4974893;28;20090;-61
2024/01/11 01:42:15;;;;;;;;;;;;;;;;;;4978562;28;20054;-56
2024/01/11 01:44:48;;;;;;;16.77;6.83;;;;;;;;;;4983783;28;19981;-51
2024/01/11 01:47:17;;;;;;;14.50;7.07;;;;;;;;;;4982422;28;20054;-55
2024/01/11 01:49:45;;;;;;;15.97;6.90;;;;;;;;;;4975957;28;20239;-58
2024/01/11 01:52:19;;;;;;;14.23;6.47;;;;;;;;;;4985108;28;20097;-59
2024/01/11 01:54:53;;;;;;;14.17;7.03;;;;;;;;;;4982451;28;20089;-59
2024/01/11 01:57:27;;;;;;;17.23;7.43;;;;;;;;;;4986659;28;20050;-60
2024/01/11 02:00:15;;;;;;;17.00;7.23;;;;;;;;;;4984121;28;20054;-59
2024/01/11 02:03:09;;;;;;;19.60;8.27;;;;;;;;;;4980480;28;20098;-59
2024/01/11 02:05:56;;;;;;;16.80;6.40;;;;;;;;;;4985680;28;20055;-60
2024/01/11 02:08:55;;;;;;;17.63;7.73;;;;;;;;;;4987577;28;20050;-61
2024/01/11 02:11:42;;;;;;;17.50;7.80;;;;;;;;;;4983312;28;20537;-62
2024/01/11 02:14:37;;;;;;;17.53;7.60;;;;;;;;;;4983813;28;20058;-61
2024/01/11 02:17:24;;;;;;;20.55;8.43;;;;;;;;;;4986839;28;20062;-62
2024/01/11 02:20:18;;;;;;;17.67;7.90;;;;;;;;;;4981077;28;20064;-60
2024/01/11 02:23:09;;;;;;;18.83;7.93;;;;;;;;;;4982526;28;20054;-61
2024/01/11 02:26:02;;;;;;;17.10;7.20;;;;;;;;;;4981251;28;20058;-62
2024/01/11 02:28:50;;;;;;;19.73;8.40;;;;;;;;;;4985574;28;20060;-62
2024/01/11 02:31:44;;;;;;;18.20;7.80;;;;;;;;;;4979938;28;20057;-62
2024/01/11 02:34:31;;;;;;;19.40;8.03;;;;;;;;;;4980699;28;20058;-62
2024/01/11 02:37:25;;;;;;;18.77;7.30;;;;;;;;;;4961868;28;20117;-64
2024/01/11 02:40:14;;;;;;;17.53;7.40;;;;;;;;;;4976975;28;20062;-62
2024/01/11 02:43:08;;;;;;;16.53;7.43;;;;;;;;;;4973974;28;20506;-62
2024/01/11 02:45:55;;;;;;;17.58;5.97;;;;;;;;;;4983903;28;20126;-62
2024/01/11 02:48:49;;;;;;;18.23;7.47;;;;;;;;;;4982955;28;20054;-62
2024/01/11 02:51:43;;;;;;;17.47;7.03;;;;;;;;;;4972583;28;20109;-62
2024/01/11 02:54:44;;;;;;;18.37;6.93;;;;;;;;;;4984906;28;20058;-62
2024/01/11 02:57:38;;;;;;;16.97;6.60;;;;;;;;;;4982997;28;20118;-62
2024/01/11 03:00:26;;;;;;;17.07;7.20;;;;;;;;;;4982320;28;20062;-62
2024/01/11 03:03:19;;;;;;;17.17;7.47;;;;;;;;;;4980544;28;20142;-62
2024/01/11 03:06:07;;;;;;;18.53;7.43;;;;;;;;;;4986691;28;20097;-62
2024/01/11 03:09:00;;;;;;;16.90;7.03;;;;;;;;;;4981890;28;20565;-62
2024/01/11 03:11:48;;;;;;;18.47;6.93;;;;;;;;;;4985202;28;20116;-62
2024/01/11 03:14:41;;;;;;;15.23;6.00;;;;;;;;;;4983862;28;20576;-62
2024/01/11 03:17:28;;;;;;;17.83;6.60;;;;;;;;;;4981157;28;20087;-54
2024/01/11 03:20:29;;;;;;;15.07;6.57;;;;;;;;;;4981531;28;20498;-59
2024/01/11 03:23:16;;;;;;;15.37;6.30;;;;;;;;;;4984296;28;20060;-60
2024/01/11 03:26:17;;;;;;;14.90;6.63;;;;;;;;;;4979460;28;20077;-58
2024/01/11 03:29:04;;;;;;;16.20;7.33;;;;;;;;;;4981594;28;20054;-57
2024/01/11 03:31:58;;;;;;;15.60;7.10;;;;;;;;;;4979526;28;20506;-59
2024/01/11 03:34:45;;;;;;;18.13;7.10;;;;;;;;;;4984876;28;20046;-54
2024/01/11 03:37:39;;;;;;;14.23;6.17;;;;;;;;;;4983359;28;20054;-54
2024/01/11 03:40:26;;;;;;;17.57;6.73;;;;;;;;;;4983514;28;20054;-54
2024/01/11 03:43:20;;;;;;;15.97;6.53;;;;;;;;;;4985236;28;20061;-50
2024/01/11 03:46:07;;;;;;;15.77;7.03;;;;;;;;;;4983141;28;20078;-61
2024/01/11 03:49:01;;;;;;;14.03;6.80;;;;;;;;;;4983337;28;20514;-52
2024/01/11 03:51:48;;;;;;;15.60;7.43;;;;;;;;;;4984161;28;20050;-58
2024/01/11 03:54:49;;;;;;;13.57;6.23;;;;;;;;;;4981733;28;20054;-57
2024/01/11 03:57:36;;;;;;;17.53;7.57;;;;;;;;;;4986925;28;20065;-56
2024/01/11 04:00:30;;;;;;;18.53;6.87;;;;;;;;;;4982253;28;20113;-57
2024/01/11 04:03:17;;;;;;;14.70;6.50;;;;;;;;;;4987673;28;20060;-62
2024/01/11 04:06:21;;;;;;;16.57;6.30;;;;;;;;;;4984412;28;20437;-62
2024/01/11 04:09:06;;;;;;;11.67;6.10;;;;;;;;;;4982415;28;20081;-61
2024/01/11 04:12:00;;;;;;;16.30;6.80;;;;;;;;;;4980998;28;20105;-62
2024/01/11 04:14:27;;;;;;;;;;;;;;;;;;4984651;28;20050;-61
2024/01/11 04:16:54;;;;;;;15.13;6.20;;;;;;;;;;4985050;28;19932;-61
2024/01/11 04:19:28;;;;;;;16.17;6.53;;;;;;;;;;4982731;28;20430;-67
2024/01/11 04:21:56;;;;;;;13.53;6.60;;;;;;;;;;4979397;28;20054;-61
2024/01/11 04:24:29;;;;;;;13.53;6.60;;;;;;;;;;4975974;28;20105;-61
2024/01/11 04:26:56;;;;;;;;;;;;;;;;;;4979484;28;20062;-61
2024/01/11 04:29:24;;;;;;;15.57;7.07;;;;;;;;;;4972971;28;19941;-61
2024/01/11 04:31:58;;;;;;;11.70;5.70;;;;;;;;;;4980513;28;20473;-67
2024/01/11 04:34:25;;;;;;;12.23;6.13;;;;;;;;;;4982482;28;20054;-67
2024/01/11 04:37:00;;;;;;;14.30;5.97;;;;;;;;;;4984470;28;20050;-52
2024/01/11 04:39:27;;;;;;;15.80;6.37;;;;;;;;;;4976535;28;20058;-52
2024/01/11 04:41:54;;;;;;;;;;;;;;;;;;4981747;28;20054;-55
2024/01/11 04:44:28;;;;;;;14.50;6.47;;;;;;;;;;4983568;28;19929;-53
2024/01/11 04:46:56;;;;;;;15.57;6.43;;;;;;;;;;4980926;28;20461;-51
2024/01/11 04:49:23;;;;;;;13.57;6.10;;;;;;;;;;4978122;28;20058;-54
2024/01/11 04:51:58;;;;;;;13.57;6.63;;;;;;;;;;4977130;28;20121;-61
2024/01/11 04:54:51;;;;;;;15.10;6.90;;;;;;;;;;4977214;28;20086;-62
2024/01/11 04:57:45;;;;;;;14.67;6.40;;;;;;;;;;4983088;28;20566;-61
2024/01/11 05:00:32;;;;;;;13.10;6.43;;;;;;;;;;4970130;28;20062;-62
2024/01/11 05:03:26;;;;;;;15.87;6.57;;;;;;;;;;4973422;28;22201;-61
2024/01/11 05:06:17;;;;;;;13.20;6.40;;;;;;;;;;4983506;28;20109;-62
2024/01/11 05:09:11;;;;;;;14.97;7.73;;;;;;;;;;4982460;28;20133;-62
2024/01/11 05:11:59;;;;;;;14.27;6.27;;;;;;;;;;4978821;28;20047;-62
2024/01/11 05:14:59;;;;;;;15.50;6.97;;;;;;;;;;4979369;28;20050;-62
2024/01/11 05:17:46;;;;;;;14.43;7.03;;;;;;;;;;4965367;28;20430;-62
2024/01/11 05:20:40;;;;;;;15.67;6.30;;;;;;;;;;4977969;28;20077;-67
2024/01/11 05:23:28;;;;;;;13.50;6.40;;;;;;;;;;4977254;28;20054;-67
2024/01/11 05:26:28;;;;;;;14.77;6.57;;;;;;;;;;4971481;28;20494;-67
2024/01/11 05:29:21;;;;;;;19.17;7.30;;;;;;;;;;4977204;28;20461;-62
2024/01/11 05:32:09;;;;;;;16.20;7.20;;;;;;;;;;4979783;28;20059;-54
2024/01/11 05:35:02;;;;;;;18.13;7.53;;;;;;;;;;4978810;28;20046;-52
2024/01/11 05:37:50;;;;;;;12.57;6.40;;;;;;;;;;4977125;28;20109;-51
2024/01/11 05:40:45;;;;;;;17.67;6.83;;;;;;;;;;4980595;28;20320;-49
2024/01/11 05:43:32;;;;;;;13.52;6.72;;;;;;;;;;4978121;28;20054;-49
2024/01/11 05:46:25;;;;;;;13.07;6.53;;;;;;;;;;4975035;28;20070;-48
2024/01/11 05:49:13;;;;;;;13.93;6.30;;;;;;;;;;4974598;28;20799;-54
2024/01/11 05:52:06;;;;;;;13.20;6.63;;;;;;;;;;4977900;28;22086;-50
2024/01/11 05:55:00;;;;;;;16.67;7.10;;;;;;;;;;4977827;28;20063;-48
2024/01/11 05:57:54;;;;;;;15.07;6.47;;;;;;;;;;4982148;28;20137;-62
2024/01/11 06:00:48;;;;;;;14.17;6.97;;;;;;;;;;4976342;28;20050;-67
2024/01/11 06:03:37;;;;;;;13.05;5.35;;;;;;;;;;4970644;28;20054;-67
2024/01/11 06:06:29;;;;;;;13.47;6.40;;;;;;;;;;4971886;28;20078;-66
2024/01/11 06:09:16;;;;;;;15.23;6.20;;;;;;;;;;4979861;28;20573;-67
2024/01/11 06:12:11;;;;;;;16.47;6.10;;;;;;;;;;4982286;28;20486;-67
2024/01/11 06:14:58;;;;;;;15.87;6.70;;;;;;;;;;4981930;28;20079;-67
2024/01/11 06:17:51;;;;;;;15.07;7.07;;;;;;;;;;4984076;28;20466;-60
2024/01/11 06:20:45;;;;;;;14.37;6.20;;;;;;;;;;4979932;28;20085;-62
2024/01/11 06:23:33;;;;;;;15.13;6.83;;;;;;;;;;4981028;28;20050;-62
2024/01/11 06:26:26;;;;;;;17.37;7.33;;;;;;;;;;4982589;28;20050;-67
2024/01/11 06:29:13;;;;;;;16.00;7.03;;;;;;;;;;4984683;28;20101;-59
2024/01/11 06:32:07;;;;;;;16.73;6.73;;;;;;;;;;4973665;28;20141;-59
2024/01/11 06:34:55;;;;;;;14.90;6.53;;;;;;;;;;4982466;28;20567;-58
2024/01/11 06:37:49;;;;;;;14.07;6.13;;;;;;;;;;4987285;28;20527;-59
2024/01/11 06:40:43;;;;;;;14.50;6.37;;;;;;;;;;4983425;28;20109;-58
2024/01/11 06:43:36;;;;;;;15.90;7.40;;;;;;;;;;4984613;28;20093;-60
2024/01/11 06:46:30;;;;;;;15.87;7.13;;;;;;;;;;4984701;28;20058;-57
2024/01/11 06:49:24;;;;;;;16.30;6.43;;;;;;;;;;4985810;28;20251;-53
2024/01/11 06:52:19;;;;;;;14.47;6.80;;;;;;;;;;4984870;28;20050;-55
2024/01/11 06:55:12;;;;;;;14.77;6.73;;;;;;;;;;4987705;28;20054;-52
2024/01/11 06:58:05;;;;;;;13.80;6.87;;;;;;;;;;4987100;28;20065;-62
2024/01/11 07:00:53;;;;;;;15.37;6.77;;;;;;;;;;4979974;28;20165;-61
2024/01/11 07:03:46;;;;;;;14.83;7.10;;;;;;;;;;4986747;28;20050;-61
2024/01/11 07:06:34;;;;;;;13.67;6.63;;;;;;;;;;4983242;28;20061;-62
2024/01/11 07:09:27;;;;;;;17.53;7.33;;;;;;;;;;4984248;28;20054;-61
2024/01/11 07:12:14;;;;;;;19.27;7.57;;;;;;;;;;4985149;28;20564;-62
2024/01/11 07:15:09;;;;;;;14.37;7.40;;;;;;;;;;4986201;28;20046;-61
2024/01/11 07:17:56;;;;;;;20.53;7.57;;;;;;;;;;4983809;28;20058;-62
2024/01/11 07:20:51;;;;;;;16.03;6.73;;;;;;;;;;4982224;28;20064;-60
2024/01/11 07:23:38;;;;;;;16.40;5.75;;;;;;;;;;4984006;28;20057;-61
2024/01/11 07:26:31;;;;;;;10.10;5.50;;;;;;;;;;4985056;28;20156;-56
2024/01/11 07:29:19;;;;;;;11.00;6.03;;;;;;;;;;4986280;28;20054;-58
2024/01/11 07:32:12;;;;;;;15.33;6.53;;;;;;;;;;4981349;28;20053;-55
2024/01/11 07:35:00;;;;;;;10.35;5.10;;;;;;;;;;4985531;28;20054;-57
2024/01/11 07:37:54;;;;;;;13.90;6.93;;;;;;;;;;4983203;28;20062;-56
2024/01/11 07:40:41;;;;;;;15.53;7.60;;;;;;;;;;4984599;28;20072;-52
2024/01/11 07:43:35;;;;;;;14.80;7.27;;;;;;;;;;4984575;28;20054;-61
2024/01/11 07:46:28;;;;;;;15.90;7.00;;;;;;;;;;4984686;28;20440;-61
2024/01/11 07:49:27;;;;;;;16.45;7.25;;;;;;;;;;4977865;28;20050;-62
2024/01/11 07:52:14;;;;;;;16.53;7.67;;;;;;;;;;4983531;28;20081;-50
2024/01/11 07:55:14;;;;;;;17.83;7.53;;;;;;;;;;4983988;28;20050;-64
2024/01/11 07:58:08;;;;;;;17.10;7.73;;;;;;;;;;4980232;28;20064;-63
2024/01/11 08:00:56;;;;;;;17.97;8.03;;;;;;;;;;4980095;28;20112;-62
2024/01/11 08:03:51;;;;;;;17.20;7.80;;;;;;;;;;4982483;28;20062;-62
2024/01/11 08:06:37;;;;;;;18.20;8.30;;;;;;;;;;4982904;28;20161;-62
2024/01/11 08:09:31;;;;;;;16.40;7.37;;;;;;;;;;4984316;28;20058;-61
2024/01/11 08:12:17;;;;;;;16.17;7.67;;;;;;;;;;4982893;28;20659;-67
2024/01/11 08:15:12;;;;;;;21.00;8.47;;;;;;;;;;4979731;28;20580;-67
2024/01/11 08:18:00;;;;;;;16.27;7.77;;;;;;;;;;4979896;28;20391;-67
2024/01/11 08:20:52;;;;;;;17.13;8.50;;;;;;;;;;4977520;28;20054;-59
2024/01/11 08:23:48;;;;;;;18.87;7.57;;;;;;;;;;4984345;28;20065;-52
2024/01/11 08:26:39;;;;;;;15.50;7.83;;;;;;;;;;4981500;28;20050;-49
2024/01/11 08:29:27;;;;;;;18.63;8.13;;;;;;;;;;4984331;28;20046;-51
2024/01/11 08:32:20;;;;;;;18.93;8.27;;;;;;;;;;4977988;28;20319;-53
2024/01/11 08:35:11;;;;;;;14.20;5.67;;;;;;;;;;4984488;28;20087;-53
2024/01/11 08:38:04;;;;;;;13.97;7.40;;;;;;;;;;4982912;28;20069;-52
2024/01/11 08:40:52;;;;;;;16.03;8.67;;;;;;;;;;4982240;28;20060;-61
2024/01/11 08:43:45;;;;;;;15.63;7.63;;;;;;;;;;4985390;28;20057;-60
2024/01/11 08:46:33;;;;;;;15.67;7.93;;;;;;;;;;4981349;28;20051;-61
2024/01/11 08:49:27;;;;;;;14.53;7.00;;;;;;;;;;4979000;28;20092;-58
2024/01/11 08:52:14;;;;;;;14.60;6.57;;;;;;;;;;4981913;28;20061;-58
2024/01/11 08:55:14;;;;;;;12.97;7.17;;;;;;;;;;4976090;28;20058;-59
2024/01/11 08:58:01;;;;;;;16.93;7.30;;;;;;;;;;4982628;28;20709;-58
2024/01/11 09:00:55;;;;;;;16.43;6.67;;;;;;;;;;4979884;28;20116;-57
2024/01/11 09:03:43;;;;;;;18.67;7.33;;;;;;;;;;4981916;28;20129;-59
2024/01/11 09:06:36;;;;;;;15.20;6.97;;;;;;;;;;4983245;28;20145;-57
2024/01/11 09:09:23;;;;;;;13.63;5.97;;;;;;;;;;4982535;28;20058;-67
2024/01/11 09:12:23;;;;;;;17.23;6.93;;;;;;;;;;4982840;28;20065;-67
2024/01/11 09:15:10;;;;;;;18.52;6.80;;;;;;;;;;4983631;28;20065;-67
2024/01/11 09:18:04;;;;;;;14.65;6.97;;;;;;;;;;4974492;28;20101;-60
2024/01/11 09:20:58;;;;;;;17.30;6.40;;;;;;;;;;4981082;28;20085;-61
2024/01/11 09:23:46;;;;;;;9.48;5.50;;;;;;;;;;4979218;28;20058;-62
2024/01/11 09:26:40;;;;;;;15.98;6.72;;;;;;;;;;4978496;28;20696;-62
2024/01/11 09:29:27;;;;;;;13.20;6.63;;;;;;;;;;4981850;28;20515;-63
2024/01/11 09:32:23;;;;;;;13.50;6.72;;;;;;;;;;4978912;28;20129;-61
2024/01/11 09:35:10;;;;;;;15.23;6.97;;;;;;;;;;4981440;28;20047;-62
2024/01/11 09:38:04;;;;;;;14.40;6.83;;;;;;;;;;4983427;28;20819;-62
2024/01/11 09:40:59;;;;;;;12.43;6.60;;;;;;;;;;4981552;28;20090;-62
2024/01/11 09:43:54;;;;;;;12.45;5.95;;;;;;;;;;4980753;28;20050;-60
2024/01/11 09:46:42;;;;;;;14.10;7.00;;;;;;;;;;4983576;28;20058;-63
2024/01/11 09:49:39;;;;;;;15.35;6.65;;;;;;;;;;4983199;28;20050;-61
2024/01/11 09:52:27;;;;;;;12.82;5.05;;;;;;;;;;4980539;28;20104;-60
2024/01/11 09:55:27;;;;;;;15.23;6.78;;;;;;;;;;4980634;28;20137;-63
2024/01/11 09:58:22;;;;;;;15.35;6.95;;;;;;;;;;4979403;28;20394;-61
2024/01/11 10:01:15;;;;;;;13.30;6.57;;;;;;;;;;4983945;28;20046;-59
2024/01/11 10:04:06;;;;;;;16.52;6.45;;;;;;;;;;4982959;28;20069;-53
2024/01/11 10:07:02;;;;;;;16.08;6.72;;;;;;;;;;4981002;28;20046;-53
2024/01/11 10:09:47;;;;;;;11.63;5.95;;;;;;;;;;4981176;28;20050;-52
2024/01/11 10:12:41;;;;;;;11.57;6.45;;;;;;;;;;4984558;28;20494;-51
2024/01/11 10:15:29;;;;;;;14.70;6.88;;;;;;;;;;4983693;28;20066;-53
2024/01/11 10:18:23;;;;;;;12.27;5.72;;;;;;;;;;4979952;28;20062;-68
2024/01/11 10:21:10;;;;;;;15.20;6.00;;;;;;;;;;4979584;28;20056;-67
2024/01/11 10:24:04;;;;;;;13.02;6.57;;;;;;;;;;4985389;28;20125;-68
2024/01/11 10:26:51;;;;;;;15.38;6.45;;;;;;;;;;4985639;28;20508;-68
2024/01/11 10:29:46;;;;;;;13.50;6.40;;;;;;;;;;4985218;28;20054;-68
2024/01/11 10:32:36;;;;;;;12.32;5.90;;;;;;;;;;4983818;28;20050;-64
2024/01/11 10:35:30;;;;;;;13.13;6.97;;;;;;;;;;4985319;28;20133;-54
2024/01/11 10:38:18;;;;;;;11.77;5.70;;;;;;;;;;4984403;28;20588;-47
2024/01/11 10:41:12;;;;;;;10.52;5.70;;;;;;;;;;4985219;28;20107;-50
2024/01/11 10:44:01;;;;;;;12.70;5.97;;;;;;;;;;4983045;28;20502;-49
2024/01/11 10:46:57;;;;;;;14.90;6.55;;;;;;;;;;4982189;28;20070;-49
2024/01/11 10:49:45;;;;;;;12.93;6.40;;;;;;;;;;4984771;28;20058;-51
2024/01/11 10:52:49;;;;;;;12.15;6.30;;;;;;;;;;4983391;28;20050;-49
2024/01/11 10:55:49;;;;;;;11.85;5.88;;;;;;;;;;4981437;28;20058;-53
2024/01/11 10:58:37;;;;;;;13.15;6.05;;;;;;;;;;4982832;28;20054;-51
2024/01/11 11:01:30;;;;;;;13.35;6.90;;;;;;;;;;4983289;28;20077;-57
2024/01/11 11:04:19;;;;;;;14.43;6.30;;;;;;;;;;4985493;28;20056;-57
2024/01/11 11:07:13;;;;;;;12.30;6.47;;;;;;;;;;4983936;28;20050;-57
2024/01/11 11:10:07;;;;;;;12.52;6.55;;;;;;;;;;4986971;28;20050;-54
2024/01/11 11:13:00;;;;;;;12.00;6.35;;;;;;;;;;4983875;28;20057;-47
2024/01/11 11:15:51;;;;;;;10.90;6.15;;;;;;;;;;4986394;28;20050;-52
2024/01/11 11:18:44;;;;;;;13.02;6.32;;;;;;;;;;4973508;28;20092;-57
2024/01/11 11:21:32;;;;;;;9.98;5.38;;;;;;;;;;4979871;28;20050;-55
2024/01/11 11:24:26;;;;;;;11.85;5.72;;;;;;;;;;4980959;28;20054;-52
2024/01/11 11:27:16;;;;;;;8.90;5.17;;;;;;;;;;4981474;28;20066;-50
2024/01/11 11:30:10;;;;;;;15.57;6.10;;;;;;;;;;4984151;28;20062;-60
2024/01/11 11:33:09;;;;;;;12.25;6.20;;;;;;;;;;4980742;28;20620;-60
2024/01/11 11:36:03;;;;;;;12.55;5.50;;;;;;;;;;4983866;28;20465;-59
2024/01/11 11:38:51;;;;;;;13.00;5.20;;;;;;;;;;4981886;28;20906;-58
2024/01/11 11:41:44;;;;;;;11.45;5.20;;;;;;;;;;4983258;28;20513;-52
2024/01/11 11:44:32;;;;;;;17.42;5.90;;;;;;;;;;4982302;28;20051;-48
2024/01/11 11:47:32;;;;;;;11.55;5.30;;;;;;;;;;4977435;28;22138;-51
2024/01/11 11:50:23;;;;;;;12.18;6.00;;;;;;;;;;4981304;28;20070;-48
2024/01/11 11:53:16;;;;;;;11.27;5.55;;;;;;;;;;4982112;28;20058;-53
2024/01/11 11:56:10;;;;;;;15.50;5.43;;;;;;;;;;4973042;28;20050;-46
2024/01/11 11:59:04;;;;;;;13.80;6.75;;;;;;;;;;4984125;28;20050;-61
2024/01/11 12:01:52;;;;;;;11.70;6.72;;;;;;;;;;4983120;28;20050;-61
2024/01/11 12:04:48;;;;;;;12.13;6.30;;;;;;;;;;4980095;28;20050;-60
2024/01/11 12:07:36;;;;;;;10.95;6.05;;;;;;;;;;4983837;28;20054;-60
2024/01/11 12:10:29;;;;;;;15.15;5.85;;;;;;;;;;4984364;28;20085;-60
2024/01/11 12:13:17;;;;;;;9.70;4.95;;;;;;;;;;4977267;28;20054;-66
2024/01/11 12:16:10;;;;;;;12.05;5.75;;;;;;;;;;4975939;28;20058;-66
2024/01/11 12:18:58;;;;;;;10.52;5.45;;;;;;;;;;4982839;28;20054;-66
2024/01/11 12:21:51;;;;;;;11.77;5.55;;;;;;;;;;4981726;28;20056;-66
2024/01/11 12:24:39;;;;;;;10.10;5.10;;;;;;;;;;4973096;28;20506;-66
2024/01/11 12:27:32;;;;;;;8.38;4.93;;;;;;;;;;4981874;28;20050;-60
2024/01/11 12:30:23;;;;;;;10.38;4.95;;;;;;;;;;4982691;28;20109;-58
2024/01/11 12:33:17;;;;;;;9.65;4.60;;;;;;;;;;4968698;28;20145;-60
2024/01/11 12:36:05;;;;;;;10.63;4.87;;;;;;;;;;4982027;28;20082;-60
2024/01/11 12:38:58;;;;;;;10.77;4.28;;;;;;;;;;4982131;28;20054;-60
2024/01/11 12:41:46;;;;;;;11.18;4.60;;;;;;;;;;4982820;28;20074;-60
2024/01/11 12:44:40;;;;;;;12.93;5.30;;;;;;;;;;4984504;28;20050;-60
2024/01/11 12:47:27;;;;;;;10.25;5.00;;;;;;;;;;4980755;28;20062;-60
2024/01/11 12:50:20;;;;;;;13.13;6.00;;;;;;;;;;4980952;28;20426;-60
2024/01/11 12:53:18;;;;;;;10.48;5.10;;;;;;;;;;4973514;28;20054;-60
2024/01/11 12:56:22;;;;;;;6.70;4.32;;;;;;;;;;4982807;28;20093;-60
2024/01/11 12:59:12;;;;;;;8.35;4.13;;;;;;;;;;4984881;28;20482;-60
2024/01/11 13:02:05;;;;;;;13.32;4.85;;;;;;;;;;4980916;28;20066;-61
2024/01/11 13:04:53;;;;;;;10.55;5.45;;;;;;;;;;4983136;28;20507;-60
2024/01/11 13:07:46;;;;;;;15.43;5.18;;;;;;;;;;4979037;28;20050;-50
2024/01/11 13:10:35;;;;;;;14.93;5.18;;;;;;;;;;4983388;28;20047;-57
2024/01/11 13:13:30;;;;;;;14.25;4.88;;;;;;;;;;4982080;28;20054;-58
2024/01/11 13:16:16;;;;;;;9.27;4.90;;;;;;;;;;4981612;28;20077;-58
2024/01/11 13:19:10;;;;;;;8.65;5.25;;;;;;;;;;4983298;28;20050;-55
2024/01/11 13:21:57;;;;;;;10.60;5.13;;;;;;;;;;4980376;28;20096;-59
2024/01/11 13:24:50;;;;;;;11.82;4.65;;;;;;;;;;4981880;28;20066;-58
2024/01/11 13:27:38;;;;;;;8.30;4.18;;;;;;;;;;4978412;28;20520;-60
2024/01/11 13:30:31;;;;;;;10.27;4.80;;;;;;;;;;4984900;28;20054;-61
2024/01/11 13:33:19;;;;;;;10.32;3.78;;;;;;;;;;4983304;28;20573;-60
2024/01/11 13:36:12;;;;;;;10.30;4.47;;;;;;;;;;4979760;28;20141;-60
2024/01/11 13:39:08;;;;;;;10.23;4.40;;;;;;;;;;4979474;28;20050;-48
2024/01/11 13:42:00;;;;;;;7.00;3.90;;;;;;;;;;4981400;28;20050;-50
2024/01/11 13:44:54;;;;;;;8.75;3.95;;;;;;;;;;4984663;28;20058;-53
2024/01/11 13:47:48;;;;;;;12.90;4.43;;;;;;;;;;4984720;28;20840;-49
2024/01/11 13:50:36;;;;;;;10.52;4.47;;;;;;;;;;4986525;28;20145;-50
2024/01/11 13:53:29;;;;;;;5.40;3.50;;;;;;;;;;4973695;28;20084;-57
2024/01/11 13:56:30;;;;;;;11.00;4.10;;;;;;;;;;4987475;28;20508;-57
2024/01/11 13:59:32;;;;;;;7.63;4.30;;;;;;;;;;4986545;28;20751;-57
2024/01/11 14:02:18;;;;;;;8.55;4.45;;;;;;;;;;4983437;28;20509;-56
2024/01/11 14:05:14;;;;;;;9.10;4.13;;;;;;;;;;4987407;28;20101;-48
2024/01/11 14:08:01;;;;;;;12.07;4.55;;;;;;;;;;4984493;28;20065;-61
2024/01/11 14:10:54;;;;;;;7.72;3.85;;;;;;;;;;4986125;28;20097;-61
2024/01/11 14:13:42;;;;;;;13.82;4.40;;;;;;;;;;4985301;28;20046;-61
2024/01/11 14:16:35;;;;;;;7.03;3.53;;;;;;;;;;4984258;28;20054;-61
2024/01/11 14:19:23;;;;;;;7.85;3.83;;;;;;;;;;4983273;28;20066;-60
2024/01/11 14:22:16;;;;;;;10.63;4.30;;;;;;;;;;4981095;28;20061;-50
2024/01/11 14:25:04;;;;;;;10.45;4.25;;;;;;;;;;4983450;28;20074;-49
2024/01/11 14:27:59;;;;;;;8.27;3.97;;;;;;;;;;4985508;28;20069;-53
2024/01/11 14:30:46;;;;;;;9.85;4.47;;;;;;;;;;4984990;28;20059;-50
2024/01/11 14:33:39;;;;;;;10.82;4.13;;;;;;;;;;4984506;28;20065;-65
2024/01/11 14:36:27;;;;;;;6.25;3.55;;;;;;;;;;4984332;28;20557;-60
2024/01/11 14:39:23;;;;;;;10.18;3.78;;;;;;;;;;4980778;28;20054;-60
2024/01/11 14:42:09;;;;;;;5.90;3.25;;;;;;;;;;4985387;28;20046;-60
2024/01/11 14:45:03;;;;;;;10.25;3.30;;;;;;;;;;4983654;28;20058;-60
2024/01/11 14:47:49;;;;;;;5.65;3.38;;;;;;;;;;4982847;28;20105;-60
2024/01/11 14:50:43;;;;;;;9.85;3.85;;;;;;;;;;4983667;28;20744;-60
2024/01/11 14:53:30;;;;;;;8.02;3.90;;;;;;;;;;4984409;28;20561;-62
2024/01/11 14:56:34;;;;;;;5.90;3.17;;;;;;;;;;4986027;28;20053;-60
2024/01/11 14:59:20;;;;;;;5.93;3.60;;;;;;;;;;4986190;28;20629;-59
2024/01/11 15:02:14;;;;;;;6.43;3.70;;;;;;;;;;4982168;28;20059;-60
2024/01/11 15:05:02;;;;;;;8.38;3.97;;;;;;;;;;4984648;28;20047;-54
2024/01/11 15:07:55;;;;;;;8.45;3.50;;;;;;;;;;4984574;28;20457;-57
2024/01/11 15:10:43;;;;;;;8.98;3.40;;;;;;;;;;4979444;28;20054;-56
2024/01/11 15:13:36;;;;;;;9.30;4.15;;;;;;;;;;4984647;28;20058;-54
2024/01/11 15:16:24;;;;;;;6.72;3.65;;;;;;;;;;4984717;28;20046;-56
2024/01/11 15:19:17;;;;;;;11.02;4.53;;;;;;;;;;4985071;28;20054;-61
2024/01/11 15:22:08;;;;;;;13.32;5.45;;;;;;;;;;4984778;28;20645;-61
2024/01/11 15:24:58;;;;;;;13.68;6.82;;;;;;;;;;4983962;28;20055;-62
2024/01/11 15:27:46;;;;;;;9.07;4.18;;;;;;;;;;4983630;28;20054;-62
2024/01/11 15:30:39;;;;;;;10.70;3.80;;;;;;;;;;4980362;28;20050;-61
2024/01/11 15:33:27;;;;;;;14.55;4.40;;;;;;;;;;4982978;28;20050;-61
2024/01/11 15:36:22;;;;;;;10.10;4.30;;;;;;;;;;4980879;28;20050;-61
2024/01/11 15:39:09;;;;;;;7.47;3.70;;;;;;;;;;4981002;28;20057;-61
2024/01/11 15:42:06;;;;;;;6.05;3.10;;;;;;;;;;4983494;28;20085;-61
2024/01/11 15:44:53;;;;;;;7.53;3.30;;;;;;;;;;4979970;28;20077;-61
2024/01/11 15:47:46;;;;;;;12.70;3.33;;;;;;;;;;4978572;28;20062;-61
2024/01/11 15:50:34;;;;;;;9.85;4.00;;;;;;;;;;4975299;28;20054;-61
2024/01/11 15:53:30;;;;;;;7.35;3.55;;;;;;;;;;4978617;28;20058;-61
2024/01/11 15:56:30;;;;;;;8.40;4.25;;;;;;;;;;4977382;28;20057;-61
2024/01/11 15:59:24;;;;;;;12.98;4.43;;;;;;;;;;4977511;28;20150;-61
2024/01/11 16:02:14;;;;;;;13.43;4.90;;;;;;;;;;4978360;28;20065;-55
2024/01/11 16:05:05;;;;;;;11.43;4.88;;;;;;;;;;4978448;28;20679;-53
2024/01/11 16:07:59;;;;;;;8.52;4.40;;;;;;;;;;4979927;28;20465;-51
2024/01/11 16:10:52;;;;;;;9.43;4.25;;;;;;;;;;4979935;28;20054;-53
2024/01/11 16:13:43;;;;;;;9.50;3.53;;;;;;;;;;4980297;28;20042;-54
2024/01/11 16:16:34;;;;;;;9.02;3.47;;;;;;;;;;4982931;28;20054;-62
2024/01/11 16:19:21;;;;;;;13.18;4.22;;;;;;;;;;4979186;28;20050;-62
2024/01/11 16:22:15;;;;;;;12.48;4.35;;;;;;;;;;4975503;28;20061;-63
2024/01/11 16:25:03;;;;;;;9.68;4.60;;;;;;;;;;4977702;28;20073;-61
2024/01/11 16:27:55;;;;;;;6.75;4.05;;;;;;;;;;4981817;28;20766;-61
2024/01/11 19:09:35;;;;;;;12.38;5.25;;;;;;;;;;5742390;23;8303257;-80
2024/01/11 19:12:10;;;;;;;10.32;6.18;;;;;;;;;;6086809;23;20038;-79
2024/01/11 19:14:37;;;;;;;13.35;5.68;;;;;;;;;;6088924;23;20085;-79
2024/01/11 19:17:05;;;;;;;11.18;5.90;;;;;;;;;;6086685;23;20106;-79
2024/01/11 19:19:39;;;;;;;12.07;5.70;;;;;;;;;;6084461;23;20022;-79
2024/01/11 19:22:06;;;;;;;11.82;6.30;;;;;;;;;;6088806;23;20027;-79
2024/01/11 19:24:36;;;;;;;12.02;5.82;;;;;;;;;;6087175;23;20090;-80
2024/01/11 19:27:10;;;;;;;11.30;6.00;;;;;;;;;;6087726;23;20112;-79
2024/01/11 19:29:37;;;;;;;;;;;;;;;;;;6088662;23;20058;-79
2024/01/11 19:32:11;;;;;;;11.65;6.45;;;;;;;;;;6089336;23;19925;-79
2024/01/11 19:34:39;;;;;;;9.50;5.65;;;;;;;;;;6088324;23;20038;-80
2024/01/11 19:37:06;;;;;;;;;;;;;;;;;;6088494;23;20057;-79
2024/01/11 19:39:47;;;;;;;11.18;5.45;;;;;;;;;;6088865;23;19928;-79
2024/01/11 19:42:14;;;;;;;10.23;5.53;;;;;;;;;;6085626;23;20081;-79
2024/01/11 19:44:48;;;;;;;11.57;5.45;;;;;;;;;;6087299;23;20023;-80
2024/01/11 19:47:15;;;;;;;;;;;;;;;;;;6086266;23;20026;-79
2024/01/11 19:49:42;;;;;;;8.95;4.82;;;;;;;;;;6087020;23;19921;-80
2024/01/11 19:52:16;;;;;;;10.88;5.07;;;;;;;;;;6088613;23;20026;-80
2024/01/11 19:54:43;;;;;;;;;;;;;;;;;;6087302;23;20353;-80
2024/01/11 19:57:17;;;;;;;12.77;5.20;;;;;;;;;;6088338;23;20331;-79
2024/01/11 19:59:44;;;;;;;;;;;;;;;;;;6088159;23;20030;-79
2024/01/11 20:02:11;;;;;;;10.20;5.10;;;;;;;;;;6087883;23;19925;-79
2024/01/11 20:04:45;;;;;;;9.18;4.97;;;;;;;;;;6086056;23;20030;-79
2024/01/11 20:07:12;;;;;;;11.13;5.78;;;;;;;;;;6082997;23;20495;-79
2024/01/11 20:09:53;;;;;;;8.98;4.30;;;;;;;;;;6059299;23;20022;-79